Time;durP1;ratioP1;P1;durP2;ratioP2;P2;SDS_P1;SDS_P2;PMS_P1;PMS_P2;Temp;Humidity;BMP_temperature;BMP_pressure;BME280_temperature;BME280_humidity;BME280_pressure;Samples;Min_cycle;Max_cycle;Signal;HPM_P1;HPM_P2
2021/03/29 00:01:45;;;;;;;8.40;2.65;;;10.70;68.30;;;;;;5051221;28;20024;-77
2021/03/29 00:04:10;;;;;;;7.25;1.88;;;10.70;68.30;;;;;;5020349;28;20029;-77
2021/03/29 00:06:36;;;;;;;12.82;2.75;;;10.70;68.00;;;;;;5032551;28;20480;-77
2021/03/29 00:09:02;;;;;;;6.10;1.80;;;10.70;68.00;;;;;;5012359;28;20029;-77
2021/03/29 00:11:28;;;;;;;13.48;3.00;;;10.80;67.90;;;;;;5050058;28;20107;-77
2021/03/29 00:13:53;;;;;;;6.68;2.15;;;10.80;67.70;;;;;;5031169;28;20136;-78
2021/03/29 00:16:20;;;;;;;5.15;2.63;;;10.70;67.70;;;;;;5025233;28;20540;-77
2021/03/29 00:18:45;;;;;;;11.02;3.00;;;10.70;67.60;;;;;;5036159;28;20040;-77
2021/03/29 00:21:11;;;;;;;6.80;2.13;;;10.70;67.70;;;;;;5028478;28;20079;-77
2021/03/29 00:23:37;;;;;;;11.75;3.33;;;10.70;67.70;;;;;;5053134;28;20059;-77
2021/03/29 00:26:04;;;;;;;10.82;3.00;;;10.70;67.70;;;;;;5016756;28;20037;-77
2021/03/29 00:28:30;;;;;;;6.30;1.95;;;10.70;67.80;;;;;;5007465;28;20044;-77
2021/03/29 00:30:55;;;;;;;11.02;2.72;;;10.60;67.90;;;;;;5047236;28;20052;-77
2021/03/29 00:33:21;;;;;;;8.52;1.95;;;10.70;67.80;;;;;;5026649;28;20056;-77
2021/03/29 00:35:47;;;;;;;12.93;3.22;;;10.70;67.70;;;;;;5022188;28;20051;-77
2021/03/29 00:38:13;;;;;;;8.68;2.38;;;10.70;67.60;;;;;;5050718;28;20033;-77
2021/03/29 00:40:46;;;;;;;8.23;2.53;;;10.70;67.60;;;;;;5045234;28;20039;-77
2021/03/29 00:43:19;;;;;;;7.90;2.30;;;10.70;67.60;;;;;;5045728;28;20485;-77
2021/03/29 00:45:46;;;;;;;6.68;2.03;;;10.70;67.60;;;;;;5010460;28;20033;-77
2021/03/29 00:48:12;;;;;;;13.88;2.90;;;10.70;67.60;;;;;;5006596;28;20295;-77
2021/03/29 00:50:46;;;;;;;11.50;3.40;;;10.70;67.50;;;;;;5054206;28;20045;-77
2021/03/29 00:53:12;;;;;;;13.20;3.08;;;10.80;67.40;;;;;;5057382;28;20665;-77
2021/03/29 00:55:39;;;;;;;7.90;2.70;;;10.80;67.40;;;;;;5049589;28;20116;-77
2021/03/29 00:58:05;;;;;;;13.98;3.72;;;10.70;67.30;;;;;;5037374;28;20056;-77
2021/03/29 01:00:35;;;;;;;6.28;1.98;;;10.70;67.50;;;;;;5068158;28;20049;-78
2021/03/29 01:03:01;;;;;;;10.60;3.08;;;10.70;67.50;;;;;;5046040;28;22518;-77
2021/03/29 01:05:26;;;;;;;7.40;2.40;;;10.80;67.30;;;;;;5047634;28;20026;-77
2021/03/29 01:07:53;;;;;;;16.80;3.05;;;10.70;67.20;;;;;;5018010;28;20420;-77
2021/03/29 01:10:19;;;;;;;8.48;2.97;;;10.70;67.30;;;;;;5034834;28;20464;-77
2021/03/29 01:12:45;;;;;;;5.97;3.15;;;10.70;67.40;;;;;;5049702;28;20032;-77
2021/03/29 01:15:13;;;;;;;9.27;1.85;;;10.70;67.40;;;;;;5023731;28;20025;-77
2021/03/29 01:17:39;;;;;;;8.32;2.70;;;10.70;67.50;;;;;;5049794;28;20024;-77
2021/03/29 01:20:04;;;;;;;14.02;3.33;;;10.70;67.30;;;;;;5032307;28;20031;-77
2021/03/29 01:22:35;;;;;;;9.25;3.28;;;10.60;67.40;;;;;;5048968;28;20116;-77
2021/03/29 01:25:11;;;;;;;9.82;2.58;;;10.60;67.40;;;;;;5018439;28;20072;-77
2021/03/29 01:27:41;;;;;;;6.75;2.70;;;10.70;67.50;;;;;;5048196;28;20036;-78
2021/03/29 01:30:08;;;;;;;4.15;1.77;;;10.60;67.40;;;;;;5030856;28;20049;-77
2021/03/29 01:32:33;;;;;;;5.90;2.53;;;10.60;67.40;;;;;;5026446;28;20103;-77
2021/03/29 01:34:59;;;;;;;8.10;2.53;;;10.60;67.60;;;;;;5043004;28;20820;-77
2021/03/29 01:37:26;;;;;;;10.82;3.15;;;10.50;67.40;;;;;;5014632;28;20026;-78
2021/03/29 01:39:51;;;;;;;4.78;2.10;;;10.50;67.70;;;;;;5028633;28;20047;-77
2021/03/29 01:42:17;;;;;;;9.35;2.53;;;10.50;67.70;;;;;;5017183;28;20500;-77
2021/03/29 01:44:43;;;;;;;12.43;3.47;;;10.50;67.70;;;;;;5011964;28;20025;-77
2021/03/29 01:47:08;;;;;;;10.73;3.17;;;10.50;67.60;;;;;;5009547;28;20047;-77
2021/03/29 01:49:34;;;;;;;6.55;1.50;;;10.50;67.50;;;;;;5032786;28;20040;-77
2021/03/29 01:51:59;;;;;;;3.80;1.58;;;10.50;67.60;;;;;;5036610;28;20033;-77
2021/03/29 01:54:25;;;;;;;9.40;2.80;;;10.50;67.50;;;;;;5021768;28;20029;-77
2021/03/29 01:56:51;;;;;;;8.68;2.95;;;10.50;67.70;;;;;;5017778;28;20039;-77
2021/03/29 01:59:16;;;;;;;9.85;2.58;;;10.40;67.60;;;;;;5032365;28;20119;-77
2021/03/29 02:01:42;;;;;;;16.65;2.83;;;10.40;67.90;;;;;;5054072;28;20036;-77
2021/03/29 02:04:07;;;;;;;4.45;1.85;;;10.40;67.80;;;;;;5035434;28;20025;-75
2021/03/29 02:06:33;;;;;;;7.22;2.78;;;10.40;67.80;;;;;;5022726;28;20032;-76
2021/03/29 02:08:58;;;;;;;11.73;3.05;;;10.40;67.90;;;;;;5011786;28;20040;-76
2021/03/29 02:11:24;;;;;;;7.57;2.90;;;10.40;68.00;;;;;;5035238;28;20029;-76
2021/03/29 02:13:51;;;;;;;12.63;3.40;;;10.30;68.20;;;;;;5001282;28;20033;-76
2021/03/29 02:16:17;;;;;;;7.82;2.17;;;10.30;68.00;;;;;;5038618;28;20040;-75
2021/03/29 02:18:53;;;;;;;13.15;3.58;;;10.30;68.00;;;;;;5018296;28;20033;-76
2021/03/29 02:21:20;;;;;;;8.50;2.08;;;10.30;68.00;;;;;;5028807;28;20051;-76
2021/03/29 02:23:50;;;;;;;9.75;3.00;;;10.30;68.20;;;;;;5009596;28;20037;-76
2021/03/29 02:26:19;;;;;;;8.55;3.08;;;10.30;68.00;;;;;;5036178;28;20272;-76
2021/03/29 02:28:46;;;;;;;8.68;2.80;;;10.20;68.30;;;;;;5021392;28;20029;-76
2021/03/29 02:31:11;;;;;;;9.75;4.30;;;10.30;68.00;;;;;;5037923;28;20053;-75
2021/03/29 02:33:37;;;;;;;3.75;1.80;;;10.30;68.00;;;;;;5031914;28;20421;-76
2021/03/29 02:36:03;;;;;;;9.82;2.85;;;10.30;67.80;;;;;;5032540;28;20025;-76
2021/03/29 02:38:28;;;;;;;9.23;3.22;;;10.30;67.70;;;;;;5012732;28;20035;-76
2021/03/29 02:40:54;;;;;;;5.70;2.38;;;10.30;67.90;;;;;;5019372;28;20025;-76
2021/03/29 02:43:20;;;;;;;15.85;2.95;;;10.20;68.00;;;;;;5026171;28;20055;-76
2021/03/29 02:45:53;;;;;;;4.93;1.42;;;10.30;68.00;;;;;;5035243;28;20036;-75
2021/03/29 02:48:19;;;;;;;5.40;1.40;;;10.30;67.70;;;;;;5030874;28;20024;-76
2021/03/29 02:50:46;;;;;;;4.53;2.83;;;10.30;67.80;;;;;;5035217;28;20131;-76
2021/03/29 02:53:20;;;;;;;14.75;2.88;;;10.30;67.80;;;;;;5046025;28;20087;-76
2021/03/29 02:55:46;;;;;;;10.38;2.65;;;10.30;67.80;;;;;;5053279;28;20056;-76
2021/03/29 02:58:13;;;;;;;5.25;2.72;;;10.30;67.90;;;;;;5027447;28;20056;-76
2021/03/29 03:00:39;;;;;;;4.32;1.27;;;10.30;67.80;;;;;;5052738;28;20495;-77
2021/03/29 03:03:05;;;;;;;6.47;1.73;;;10.30;67.70;;;;;;5014023;28;20045;-77
2021/03/29 03:05:32;;;;;;;5.13;1.60;;;10.30;67.70;;;;;;5029843;28;20037;-77
2021/03/29 03:07:58;;;;;;;8.48;2.50;;;10.30;67.70;;;;;;5024638;28;20481;-77
2021/03/29 03:10:24;;;;;;;7.88;2.22;;;10.30;67.70;;;;;;5037302;28;20032;-77
2021/03/29 03:12:49;;;;;;;8.75;1.95;;;10.30;67.70;;;;;;5024118;28;20035;-77
2021/03/29 03:15:20;;;;;;;7.50;1.95;;;10.30;67.80;;;;;;5036045;28;20483;-77
2021/03/29 03:17:45;;;;;;;7.72;2.15;;;10.30;67.60;;;;;;5050493;28;20430;-77
2021/03/29 03:20:12;;;;;;;6.95;1.63;;;10.30;67.60;;;;;;5008553;28;20031;-77
2021/03/29 03:22:57;;;;;;;1.25;1.15;;;10.30;67.70;;;;;;5051212;28;20028;-77
2021/03/29 03:25:27;;;;;;;9.45;2.30;;;10.30;67.80;;;;;;5050776;28;20456;-77
2021/03/29 03:27:53;;;;;;;9.00;2.00;;;10.30;67.70;;;;;;5031281;28;20083;-77
2021/03/29 03:30:29;;;;;;;5.45;2.28;;;10.30;67.90;;;;;;5009033;28;20032;-77
2021/03/29 03:32:55;;;;;;;4.82;1.33;;;10.30;68.00;;;;;;5051020;28;20029;-77
2021/03/29 03:35:24;;;;;;;6.07;1.73;;;10.20;68.00;;;;;;5029853;28;20024;-77
2021/03/29 03:38:02;;;;;;;10.82;3.40;;;10.30;68.00;;;;;;5047598;28;20083;-77
2021/03/29 03:40:28;;;;;;;4.20;1.75;;;10.20;68.00;;;;;;5014740;28;20450;-77
2021/03/29 03:42:58;;;;;;;6.65;2.47;;;10.20;68.10;;;;;;5028637;28;20100;-77
2021/03/29 03:45:27;;;;;;;9.15;1.58;;;10.20;68.00;;;;;;5031394;28;20032;-77
2021/03/29 03:47:53;;;;;;;3.83;1.73;;;10.20;68.10;;;;;;5032818;28;20038;-77
2021/03/29 03:50:18;;;;;;;5.38;1.65;;;10.30;68.10;;;;;;5052204;28;20043;-77
2021/03/29 03:52:44;;;;;;;11.95;2.95;;;10.30;68.00;;;;;;5036569;28;20020;-77
2021/03/29 03:55:10;;;;;;;8.25;2.78;;;10.20;68.10;;;;;;5012789;28;20636;-77
2021/03/29 03:57:38;;;;;;;5.30;1.45;;;10.20;68.20;;;;;;5036811;28;20027;-78
2021/03/29 04:00:12;;;;;;;4.53;1.50;;;10.20;68.40;;;;;;5034499;28;20437;-77
2021/03/29 04:02:37;;;;;;;1.60;0.70;;;10.20;68.50;;;;;;5025259;28;20071;-77
2021/03/29 04:05:04;;;;;;;6.18;2.75;;;10.20;68.30;;;;;;5047334;28;20373;-77
2021/03/29 04:07:30;;;;;;;8.02;2.13;;;10.20;68.40;;;;;;5048589;28;20123;-77
2021/03/29 04:10:01;;;;;;;5.50;2.05;;;10.20;68.50;;;;;;5031502;28;20055;-77
2021/03/29 04:12:28;;;;;;;3.20;1.30;;;10.10;68.40;;;;;;5023001;28;20473;-77
2021/03/29 04:14:54;;;;;;;2.70;1.58;;;10.20;68.50;;;;;;5030765;28;20507;-77
2021/03/29 04:17:19;;;;;;;11.15;2.03;;;10.20;68.50;;;;;;5051381;28;20032;-77
2021/03/29 04:19:45;;;;;;;11.05;2.28;;;10.10;68.60;;;;;;5008459;28;20315;-76
2021/03/29 04:22:10;;;;;;;10.65;3.10;;;10.20;68.70;;;;;;5032101;28;20370;-77
2021/03/29 04:24:36;;;;;;;5.20;1.70;;;10.10;68.70;;;;;;5046781;28;20550;-76
2021/03/29 04:27:01;;;;;;;5.13;2.65;;;10.10;68.80;;;;;;5030584;28;20386;-77
2021/03/29 04:29:27;;;;;;;2.00;1.42;;;10.00;69.00;;;;;;5032403;28;20045;-77
2021/03/29 04:31:53;;;;;;;4.22;2.45;;;10.10;69.10;;;;;;5051976;28;20146;-77
2021/03/29 04:34:19;;;;;;;9.13;2.75;;;10.10;69.00;;;;;;5051703;28;20035;-76
2021/03/29 04:36:44;;;;;;;4.95;1.80;;;10.10;69.10;;;;;;5051067;28;20032;-77
2021/03/29 04:39:10;;;;;;;16.17;3.33;;;10.10;69.20;;;;;;5012588;28;20056;-76
2021/03/29 04:41:35;;;;;;;8.68;1.17;;;10.10;69.10;;;;;;5051040;28;20408;-76
2021/03/29 04:44:01;;;;;;;5.50;1.90;;;10.10;69.20;;;;;;5035138;28;20337;-76
2021/03/29 04:46:26;;;;;;;12.43;2.15;;;10.00;69.20;;;;;;5023357;28;20041;-76
2021/03/29 04:48:52;;;;;;;4.75;1.42;;;10.00;69.40;;;;;;5018285;28;20035;-76
2021/03/29 04:51:17;;;;;;;2.30;1.48;;;10.10;69.40;;;;;;5024381;28;20040;-76
2021/03/29 04:53:43;;;;;;;7.13;2.50;;;10.10;69.50;;;;;;5052309;28;20025;-76
2021/03/29 04:56:09;;;;;;;6.80;1.67;;;10.00;69.40;;;;;;5026795;28;20064;-76
2021/03/29 04:58:34;;;;;;;4.65;1.45;;;10.00;69.60;;;;;;5050848;28;20086;-76
2021/03/29 05:01:00;;;;;;;1.38;0.85;;;10.00;69.60;;;;;;5016606;28;20124;-76
2021/03/29 05:03:25;;;;;;;3.40;1.55;;;10.00;69.70;;;;;;5049820;28;20033;-77
2021/03/29 05:05:51;;;;;;;2.78;1.75;;;10.00;69.80;;;;;;5032617;28;20029;-76
2021/03/29 05:08:16;;;;;;;4.40;1.48;;;10.00;69.80;;;;;;5021041;28;20587;-76
2021/03/29 05:10:42;;;;;;;4.40;1.48;;;10.00;69.70;;;;;;5031776;28;20037;-76
2021/03/29 05:13:08;;;;;;;5.93;1.55;;;10.00;70.00;;;;;;5031281;28;20045;-76
2021/03/29 05:15:33;;;;;;;3.97;1.85;;;10.00;69.90;;;;;;5048976;28;20071;-76
2021/03/29 05:17:59;;;;;;;8.27;2.00;;;10.00;69.90;;;;;;5047065;28;20037;-76
2021/03/29 05:20:24;;;;;;;3.65;1.85;;;10.00;69.90;;;;;;5033973;28;20033;-76
2021/03/29 05:22:50;;;;;;;5.82;1.40;;;10.00;70.10;;;;;;5039019;28;20392;-76
2021/03/29 05:25:16;;;;;;;7.40;2.03;;;10.00;70.20;;;;;;5027140;28;20397;-76
2021/03/29 05:27:41;;;;;;;5.47;2.03;;;10.00;70.20;;;;;;5038853;28;20451;-75
2021/03/29 05:30:07;;;;;;;2.95;1.05;;;10.00;70.30;;;;;;5027988;28;20507;-76
2021/03/29 05:32:33;;;;;;;9.57;2.22;;;9.90;71.40;;;;;;5055744;28;20119;-76
2021/03/29 05:35:02;;;;;;;5.45;1.60;;;10.00;70.30;;;;;;5044653;28;20112;-76
2021/03/29 05:37:28;;;;;;;12.40;2.20;;;10.00;70.40;;;;;;5036129;28;20026;-76
2021/03/29 05:39:55;;;;;;;10.05;2.20;;;9.90;71.60;;;;;;5021127;28;20388;-76
2021/03/29 05:42:22;;;;;;;4.05;1.70;;;9.90;71.60;;;;;;5023768;28;20033;-76
2021/03/29 05:44:48;;;;;;;6.82;1.83;;;9.90;71.90;;;;;;5027707;28;20601;-76
2021/03/29 05:47:14;;;;;;;9.73;2.63;;;9.90;71.80;;;;;;5021536;28;20503;-76
2021/03/29 05:49:39;;;;;;;5.05;2.40;;;10.00;70.70;;;;;;5037494;28;20028;-75
2021/03/29 05:52:05;;;;;;;2.80;1.30;;;10.00;70.60;;;;;;5037370;28;20040;-75
2021/03/29 05:54:31;;;;;;;7.45;2.30;;;10.00;70.70;;;;;;5051744;28;20036;-75
2021/03/29 05:56:56;;;;;;;6.40;1.85;;;10.00;70.70;;;;;;5050156;28;20067;-76
2021/03/29 05:59:25;;;;;;;6.90;2.92;;;10.00;70.70;;;;;;5031295;28;20032;-78
2021/03/29 06:01:53;;;;;;;10.27;2.10;;;10.00;70.90;;;;;;5033069;28;20400;-75
2021/03/29 06:04:41;;;;;;;9.98;1.67;;;10.00;70.80;;;;;;5026340;28;20068;-75
2021/03/29 06:07:14;;;;;;;7.68;2.17;;;10.00;70.90;;;;;;5032915;28;20128;-75
2021/03/29 06:09:40;;;;;;;3.65;1.67;;;10.00;70.90;;;;;;5007966;28;20060;-76
2021/03/29 06:12:07;;;;;;;9.82;1.92;;;10.00;70.90;;;;;;5051873;28;20041;-75
2021/03/29 06:14:34;;;;;;;2.45;1.40;;;10.10;71.00;;;;;;5010686;28;20036;-75
2021/03/29 06:17:09;;;;;;;7.00;1.90;;;10.10;71.00;;;;;;5020343;28;20035;-78
2021/03/29 06:19:53;;;;;;;5.93;1.75;;;10.20;70.70;;;;;;5052238;28;20185;-76
2021/03/29 06:22:29;;;;;;;9.75;1.83;;;10.30;70.90;;;;;;5073316;28;20104;-75
2021/03/29 06:24:56;;;;;;;10.38;2.13;;;10.30;70.70;;;;;;5031342;28;20037;-78
2021/03/29 06:27:22;;;;;;;6.47;1.80;;;10.40;70.60;;;;;;5037885;28;20409;-77
2021/03/29 06:29:48;;;;;;;4.22;2.08;;;10.40;70.60;;;;;;5056949;28;20041;-78
2021/03/29 06:32:19;;;;;;;4.32;1.88;;;10.50;70.40;;;;;;5040025;28;20392;-77
2021/03/29 06:34:48;;;;;;;4.93;1.95;;;10.40;70.40;;;;;;5007782;28;20040;-77
2021/03/29 06:37:14;;;;;;;2.45;0.73;;;10.50;70.30;;;;;;5025238;28;20142;-77
2021/03/29 06:39:40;;;;;;;6.07;1.90;;;10.70;70.00;;;;;;5059572;28;20029;-78
2021/03/29 06:42:06;;;;;;;4.95;2.10;;;10.70;69.60;;;;;;5012713;28;20462;-78
2021/03/29 06:44:33;;;;;;;6.97;1.98;;;10.80;69.80;;;;;;5010789;28;20067;-78
2021/03/29 06:47:08;;;;;;;5.93;2.22;;;10.90;69.80;;;;;;5015489;28;20044;-78
2021/03/29 06:49:50;;;;;;;7.73;1.80;;;10.90;69.70;;;;;;5054466;28;20028;-78
2021/03/29 06:52:29;;;;;;;5.53;1.92;;;11.00;69.20;;;;;;5008681;28;20025;-78
2021/03/29 06:54:55;;;;;;;6.22;1.67;;;11.20;69.10;;;;;;5015428;28;20052;-78
2021/03/29 06:57:28;;;;;;;3.03;0.98;;;11.20;69.30;;;;;;5041717;28;20029;-78
2021/03/29 06:59:54;;;;;;;9.77;1.45;;;11.30;68.80;;;;;;5032182;28;20044;-78
2021/03/29 07:02:36;;;;;;;1.13;1.02;;;11.40;68.30;;;;;;5014298;28;20028;-78
2021/03/29 07:05:01;;;;;;;8.18;2.15;;;11.50;68.20;;;;;;5007607;28;20048;-78
2021/03/29 07:07:27;;;;;;;8.73;1.25;;;11.60;68.20;;;;;;5018566;28;20091;-78
2021/03/29 07:09:53;;;;;;;6.38;2.10;;;11.50;68.40;;;;;;5036908;28;20024;-78
2021/03/29 07:12:18;;;;;;;5.53;2.35;;;11.60;68.40;;;;;;5035304;28;20124;-77
2021/03/29 07:14:44;;;;;;;9.68;2.10;;;11.80;68.00;;;;;;5042334;28;20037;-76
2021/03/29 07:17:10;;;;;;;4.70;1.83;;;11.90;67.70;;;;;;5053622;28;20033;-75
2021/03/29 07:19:36;;;;;;;7.93;2.08;;;11.90;67.70;;;;;;5044383;28;20468;-78
2021/03/29 07:22:02;;;;;;;6.20;2.08;;;11.90;67.80;;;;;;5038010;28;20120;-78
2021/03/29 07:24:27;;;;;;;7.90;1.55;;;12.00;67.80;;;;;;5010903;28;20052;-78
2021/03/29 07:26:57;;;;;;;8.35;2.10;;;12.10;67.80;;;;;;5033369;28;20036;-78
2021/03/29 07:29:26;;;;;;;9.35;1.98;;;12.50;66.60;;;;;;5056682;28;20756;-76
2021/03/29 07:31:53;;;;;;;7.55;1.70;;;12.60;66.80;;;;;;5049662;28;20132;-75
2021/03/29 07:34:48;;;;;;;5.10;1.65;;;12.80;65.70;;;;;;5032102;28;20056;-76
2021/03/29 07:37:41;;;;;;;6.85;2.15;;;12.60;66.10;;;;;;5048061;28;20155;-76
2021/03/29 07:40:17;;;;;;;7.80;1.88;;;12.50;66.70;;;;;;5044428;28;20052;-76
2021/03/29 07:42:44;;;;;;;4.13;1.17;;;13.10;65.30;;;;;;5042039;28;20044;-76
2021/03/29 07:45:11;;;;;;;4.85;1.20;;;13.10;64.90;;;;;;5002703;28;20116;-76
2021/03/29 07:47:44;;;;;;;5.35;1.63;;;13.10;64.90;;;;;;5027232;28;20090;-77
2021/03/29 07:50:24;;;;;;;1.80;0.80;;;13.30;64.20;;;;;;5030464;28;20140;-77
2021/03/29 07:52:51;;;;;;;5.97;1.10;;;13.60;63.70;;;;;;5063956;28;20041;-77
2021/03/29 07:55:21;;;;;;;2.05;1.35;;;13.60;63.70;;;;;;5005953;28;20420;-77
2021/03/29 07:57:49;;;;;;;4.10;1.30;;;13.50;63.90;;;;;;5026674;28;20037;-77
2021/03/29 08:00:27;;;;;;;2.53;1.20;;;13.50;64.20;;;;;;5051931;28;20033;-77
2021/03/29 08:03:02;;;;;;;5.10;1.92;;;13.60;63.80;;;;;;5042875;28;20789;-77
2021/03/29 08:05:43;;;;;;;10.80;2.00;;;13.60;64.30;;;;;;5035230;28;20499;-76
2021/03/29 08:08:41;;;;;;;6.45;2.00;;;13.80;63.20;;;;;;5031666;28;20044;-77
2021/03/29 08:11:15;;;;;;;7.22;1.60;;;13.70;63.30;;;;;;5048592;28;20026;-76
2021/03/29 08:13:42;;;;;;;9.07;1.85;;;13.70;63.50;;;;;;5029955;28;20035;-77
2021/03/29 08:16:11;;;;;;;5.82;1.73;;;13.80;63.50;;;;;;5016568;28;20041;-77
2021/03/29 08:19:05;;;;;;;4.93;1.50;;;14.00;63.00;;;;;;5034353;28;20442;-77
2021/03/29 08:21:49;;;;;;;5.70;2.00;;;14.10;62.50;;;;;;5050704;28;20435;-77
2021/03/29 08:24:19;;;;;;;5.47;1.55;;;14.10;62.70;;;;;;5050374;28;20212;-78
2021/03/29 08:26:45;;;;;;;3.83;2.00;;;14.30;62.90;;;;;;5037377;28;20093;-77
2021/03/29 08:29:14;;;;;;;4.05;1.73;;;14.40;61.90;;;;;;5024965;28;20048;-77
2021/03/29 08:32:01;;;;;;;3.60;1.40;;;14.60;61.60;;;;;;5053288;28;20383;-77
2021/03/29 08:34:31;;;;;;;8.32;1.60;;;14.50;62.40;;;;;;5043728;28;20037;-77
2021/03/29 08:37:05;;;;;;;8.15;2.72;;;14.70;62.00;;;;;;5032258;28;20525;-77
2021/03/29 08:39:44;;;;;;;3.63;1.60;;;14.90;61.90;;;;;;5055875;28;20400;-77
2021/03/29 08:42:09;;;;;;;3.78;1.00;;;15.00;61.30;;;;;;5024688;28;20075;-77
2021/03/29 08:44:40;;;;;;;10.30;2.45;;;15.30;60.10;;;;;;5037306;28;20052;-77
2021/03/29 08:47:10;;;;;;;11.75;2.50;;;15.30;59.70;;;;;;5011789;28;20045;-77
2021/03/29 08:49:36;;;;;;;9.55;1.80;;;15.60;59.90;;;;;;5021357;28;20507;-77
2021/03/29 08:52:02;;;;;;;6.40;1.60;;;15.60;59.60;;;;;;5028719;28;20033;-76
2021/03/29 08:54:27;;;;;;;6.72;1.73;;;15.70;59.30;;;;;;5025146;28;20442;-77
2021/03/29 08:56:55;;;;;;;5.40;1.83;;;15.80;58.90;;;;;;5046197;28;20036;-77
2021/03/29 08:59:27;;;;;;;6.68;1.60;;;15.80;58.30;;;;;;5028603;28;20043;-76
2021/03/29 09:01:53;;;;;;;5.15;1.63;;;15.80;57.70;;;;;;5053936;28;20093;-78
2021/03/29 09:04:18;;;;;;;7.03;2.35;;;15.80;57.30;;;;;;5040653;28;20060;-76
2021/03/29 09:06:44;;;;;;;6.90;1.98;;;15.80;58.30;;;;;;5050955;28;20036;-76
2021/03/29 09:09:14;;;;;;;8.40;1.92;;;15.60;58.20;;;;;;5021068;28;20047;-76
2021/03/29 09:11:41;;;;;;;8.25;2.30;;;15.50;58.90;;;;;;5036005;28;20055;-77
2021/03/29 09:14:08;;;;;;;8.40;1.80;;;15.70;58.60;;;;;;5036215;28;20094;-76
2021/03/29 09:16:34;;;;;;;8.70;1.88;;;15.70;58.50;;;;;;5042568;28;20032;-76
2021/03/29 09:19:19;;;;;;;5.80;2.10;;;15.50;58.90;;;;;;5021355;28;20397;-76
2021/03/29 09:21:51;;;;;;;4.72;1.85;;;15.50;58.40;;;;;;5028602;28;20028;-76
2021/03/29 09:24:21;;;;;;;6.72;1.80;;;15.60;58.50;;;;;;5027024;28;20037;-76
2021/03/29 09:27:06;;;;;;;5.90;2.05;;;15.50;58.60;;;;;;5039541;28;20431;-76
2021/03/29 09:29:37;;;;;;;5.38;1.70;;;15.60;58.70;;;;;;5027535;28;20436;-77
2021/03/29 09:32:05;;;;;;;11.50;2.95;;;15.80;58.90;;;;;;5027849;28;20497;-77
2021/03/29 09:34:30;;;;;;;6.80;1.75;;;16.10;58.10;;;;;;5030592;28;20039;-76
2021/03/29 09:36:57;;;;;;;7.97;2.45;;;16.20;57.70;;;;;;5034190;28;20120;-77
2021/03/29 09:39:23;;;;;;;8.18;2.22;;;16.30;57.20;;;;;;5028139;28;20393;-76
2021/03/29 09:41:50;;;;;;;5.38;2.42;;;16.40;57.60;;;;;;5010554;28;20021;-76
2021/03/29 09:44:16;;;;;;;8.63;1.88;;;16.40;57.70;;;;;;5024474;28;20493;-76
2021/03/29 09:46:41;;;;;;;4.82;1.50;;;16.60;56.90;;;;;;5024246;28;20029;-76
2021/03/29 09:49:08;;;;;;;8.70;1.80;;;17.10;54.70;;;;;;5011960;28;20038;-76
2021/03/29 09:51:34;;;;;;;11.70;1.70;;;17.30;54.00;;;;;;5026308;28;20067;-76
2021/03/29 09:53:59;;;;;;;4.97;1.40;;;17.30;55.20;;;;;;5035552;28;20056;-76
2021/03/29 09:56:33;;;;;;;4.80;1.73;;;17.20;56.00;;;;;;5034726;28;21412;-76
2021/03/29 09:58:59;;;;;;;9.32;2.20;;;17.50;54.70;;;;;;5037673;28;20057;-77
2021/03/29 10:01:25;;;;;;;2.42;1.05;;;18.10;54.00;;;;;;5016961;28;20107;-77
2021/03/29 10:03:54;;;;;;;6.13;1.67;;;17.90;53.70;;;;;;5038597;28;20464;-77
2021/03/29 10:06:21;;;;;;;6.78;1.90;;;18.00;53.30;;;;;;5035594;28;20044;-76
2021/03/29 10:08:57;;;;;;;4.60;1.25;;;17.90;53.20;;;;;;5036228;28;20106;-77
2021/03/29 10:11:23;;;;;;;6.93;2.10;;;18.00;53.60;;;;;;5048186;28;20638;-77
2021/03/29 10:13:48;;;;;;;5.90;1.70;;;18.30;52.30;;;;;;5036213;28;20116;-77
2021/03/29 10:16:29;;;;;;;12.77;2.35;;;18.90;51.20;;;;;;5014612;28;20041;-77
2021/03/29 10:19:14;;;;;;;2.40;0.95;;;18.70;50.80;;;;;;5053629;28;20032;-77
2021/03/29 10:22:19;;;;;;;1.65;1.05;;;18.80;50.90;;;;;;5023020;28;20029;-77
2021/03/29 10:25:04;;;;;;;2.53;1.05;;;18.80;50.20;;;;;;5050598;28;20029;-77
2021/03/29 10:27:46;;;;;;;4.90;1.10;;;19.10;49.40;;;;;;5066018;28;20087;-77
2021/03/29 10:30:18;;;;;;;6.10;1.50;;;19.30;49.20;;;;;;5049775;28;20127;-78
2021/03/29 10:32:43;;;;;;;4.85;1.30;;;19.20;48.30;;;;;;5054360;28;20112;-78
2021/03/29 10:35:09;;;;;;;6.68;1.77;;;19.10;49.60;;;;;;5046784;28;20568;-78
2021/03/29 10:37:35;;;;;;;6.40;1.65;;;19.80;46.90;;;;;;5024054;28;20070;-78
2021/03/29 10:40:01;;;;;;;3.20;1.25;;;20.40;44.30;;;;;;5034605;28;20495;-78
2021/03/29 10:42:30;;;;;;;5.15;1.65;;;20.40;44.00;;;;;;5021892;28;20364;-78
2021/03/29 10:44:56;;;;;;;0.82;0.80;;;20.60;43.50;;;;;;5027096;28;20151;-78
2021/03/29 10:47:22;;;;;;;4.50;1.17;;;20.70;42.90;;;;;;5034501;28;20124;-78
2021/03/29 10:49:48;;;;;;;5.82;1.33;;;20.80;42.60;;;;;;5051143;28;20578;-78
2021/03/29 10:52:13;;;;;;;3.22;1.23;;;20.80;40.90;;;;;;5040930;28;20120;-78
2021/03/29 10:54:39;;;;;;;8.98;1.33;;;20.40;43.90;;;;;;5053172;28;20500;-78
2021/03/29 10:57:05;;;;;;;2.67;1.20;;;20.60;41.50;;;;;;5042127;28;20131;-78
2021/03/29 10:59:30;;;;;;;2.72;1.05;;;21.10;40.50;;;;;;5031704;28;20523;-78
2021/03/29 11:01:56;;;;;;;6.75;1.50;;;21.00;40.70;;;;;;5030732;28;20068;-78
2021/03/29 11:04:23;;;;;;;3.50;0.90;;;20.90;39.70;;;;;;5034563;28;20033;-78
2021/03/29 11:06:48;;;;;;;2.72;1.08;;;21.10;40.00;;;;;;5033697;28;20127;-78
2021/03/29 11:09:14;;;;;;;4.00;1.30;;;21.30;38.90;;;;;;5014131;28;20040;-78
2021/03/29 11:11:39;;;;;;;6.35;1.10;;;21.50;37.80;;;;;;5053435;28;20044;-78
2021/03/29 11:14:05;;;;;;;2.83;1.30;;;21.70;37.50;;;;;;5054282;28;20477;-79
2021/03/29 11:16:31;;;;;;;4.35;1.38;;;21.30;38.20;;;;;;5036521;28;20036;-79
2021/03/29 11:18:56;;;;;;;7.20;1.70;;;21.60;38.10;;;;;;5010218;28;20064;-78
2021/03/29 11:21:22;;;;;;;0.95;0.43;;;21.80;38.50;;;;;;5043660;28;20048;-78
2021/03/29 11:23:48;;;;;;;4.68;1.40;;;21.90;37.90;;;;;;5011686;28;20104;-78
2021/03/29 11:26:13;;;;;;;3.78;1.23;;;21.80;38.40;;;;;;5045247;28;20492;-78
2021/03/29 11:28:39;;;;;;;3.42;1.40;;;22.00;36.90;;;;;;5034525;28;20020;-78
2021/03/29 11:31:04;;;;;;;5.03;1.95;;;22.20;36.70;;;;;;5021655;28;20044;-78
2021/03/29 11:33:30;;;;;;;2.17;1.38;;;22.10;36.70;;;;;;5024763;28;20037;-79
2021/03/29 11:35:55;;;;;;;2.40;1.00;;;22.10;36.10;;;;;;5007968;28;20096;-79
2021/03/29 11:38:21;;;;;;;7.28;1.52;;;22.10;35.80;;;;;;5014679;28;20469;-78
2021/03/29 11:40:46;;;;;;;3.60;1.40;;;22.60;35.40;;;;;;5025477;28;20024;-78
2021/03/29 11:43:12;;;;;;;3.13;0.90;;;22.40;36.20;;;;;;5011170;28;20503;-79
2021/03/29 11:45:38;;;;;;;3.50;1.90;;;22.30;36.90;;;;;;5032813;28;20020;-79
2021/03/29 11:48:04;;;;;;;5.30;1.77;;;22.70;35.70;;;;;;5029569;28;20064;-79
2021/03/29 11:50:30;;;;;;;2.25;0.80;;;23.10;34.30;;;;;;5036539;28;20389;-79
2021/03/29 11:52:55;;;;;;;5.47;1.80;;;22.70;35.10;;;;;;5033291;28;20120;-79
2021/03/29 11:55:21;;;;;;;4.88;1.10;;;22.70;34.20;;;;;;5036154;28;20609;-79
2021/03/29 11:57:47;;;;;;;3.00;1.10;;;23.20;34.10;;;;;;5054135;28;20039;-79
2021/03/29 12:00:51;;;;;;;4.85;1.45;;;23.10;33.90;;;;;;5029837;28;20087;-79
2021/03/29 12:03:22;;;;;;;2.88;1.02;;;23.20;33.50;;;;;;5046178;28;20511;-79
2021/03/29 12:05:55;;;;;;;3.15;1.50;;;23.20;33.70;;;;;;5017918;28;20488;-79
2021/03/29 12:13:34;;;;;;;5.18;1.38;;;23.50;33.30;;;;;;5048024;28;20030;-79
2021/03/29 12:16:00;;;;;;;3.33;1.38;;;23.30;33.20;;;;;;5031750;28;20028;-79
2021/03/29 12:21:31;;;;;;;4.15;1.08;;;23.50;31.90;;;;;;4977161;28;20549;-79
2021/03/29 12:24:01;;;;;;;3.28;1.70;;;23.50;32.60;;;;;;5025997;28;20037;-79
2021/03/29 12:26:26;;;;;;;3.33;1.58;;;23.60;34.20;;;;;;5031115;28;20433;-79
2021/03/29 12:28:52;;;;;;;6.68;1.52;;;23.80;32.30;;;;;;5005785;28;20206;-79
2021/03/29 12:31:19;;;;;;;2.92;1.20;;;23.80;32.50;;;;;;5019731;28;20492;-79
2021/03/29 12:33:44;;;;;;;6.88;1.75;;;23.70;34.10;;;;;;5032664;28;20107;-79
2021/03/29 12:36:11;;;;;;;3.88;1.38;;;23.80;34.10;;;;;;5022808;28;20485;-79
2021/03/29 12:38:39;;;;;;;5.78;1.35;;;23.90;34.50;;;;;;5033217;28;20396;-79
2021/03/29 12:41:07;;;;;;;4.75;1.58;;;24.00;32.80;;;;;;5025950;28;20615;-79
2021/03/29 12:43:42;;;;;;;4.82;1.48;;;24.00;32.20;;;;;;5015123;28;20047;-79
2021/03/29 12:46:07;;;;;;;3.72;1.00;;;24.20;32.30;;;;;;5019660;28;20466;-78
2021/03/29 12:48:36;;;;;;;4.45;1.80;;;24.30;32.20;;;;;;5037428;28;20036;-79
2021/03/29 12:51:03;;;;;;;4.30;1.23;;;24.50;32.50;;;;;;5009616;28;20169;-78
2021/03/29 12:53:29;;;;;;;6.75;1.88;;;24.30;30.70;;;;;;5027747;28;20482;-78
2021/03/29 12:55:56;;;;;;;3.92;1.30;;;24.20;30.60;;;;;;5033878;28;20339;-79
2021/03/29 12:58:21;;;;;;;5.07;1.35;;;24.20;31.40;;;;;;5043370;28;20037;-78
2021/03/29 13:00:48;;;;;;;4.47;1.65;;;23.90;32.50;;;;;;5053055;28;20101;-78